West Point, PA (19486)

14:41 EDT le 30 juillet 2016 (GMT -0400)
North Wales, Pa | | Change Station

Alt. 374 ft 40.22 °N, 75.28 °W | Updated 7 seconds ago

Mostly Cloudy
Nuageux
78.2 ° F
Paraît 81 ° F
N
0.0
Vent Variable Vent de NNO
Gusts 4.0 mph

Aujourd'hui
Haut(e) -- | Bas -- ° F
--% Risque de précip.
Hier
Haut(e) -- | Bas -- ° F
Precip. -- pouce
Pression 29.96 pouce
Visibilité 7.0 Miles terrestres
Nuages Nuages épars 1800 ft
Nuages épars 2900 ft
Nuageux 5000 ft
indice de chaleur 81 ° F
Point de rosée 70 ° F
Humidité 77%
Précipitations 0.05 pouce
Profondeur de la couche neigeuse Non disponible.
5:57 AM 8:16 PM
Lune descendante, 12% visible
METAR KLOM 301835Z AUTO 23003KT 7SM SCT018 SCT029 BKN050 26/22 A2996 RMK AO1 P0005
Pression 29.96 pouce
Visibilité 7.0 Miles terrestres
Nuages Nuages épars 1800 ft
Nuages épars 2900 ft
Nuageux 5000 ft
indice de chaleur 81 ° F
Point de rosée 70 ° F
Humidité 77%
Précipitations 0.05 pouce
Profondeur de la couche neigeuse Non disponible.
5:57 AM 8:16 PM
Lune descendante, 12% visible
METAR KLOM 301835Z AUTO 23003KT 7SM SCT018 SCT029 BKN050 26/22 A2996 RMK AO1 P0005

10-Day Weather Forecast

Almanac

Astronomie

Jul. 30, 2016 Lever Coucher
Temps réel
Crépuscule civil
Crépuscule nautique
Crépuscule astronomique
Lune
Durée de lumière visible
Longueur du jour
Tomorrow will be .
, % of the Moon is Illuminated

Extrêmes aujourd'hui

State Highs State Lows

Community

WunderPhotos

Upload Photos

1,928,612 Photos téléchargées !

WunderBlog® & News

Nearby

Qualité de l'air

  Qualité de l'air Indice de la qualité de l'air Polluant
Not available.

Épaisseur de neige

Station Depth Altitude

Activité sismique

Ville Distance Mag. Time & Date
Minimum magnitude displayed is 2.5.

Températures des eaux côtières

Lieu Température

Stations

Stations météo à proximité

Emplacement de la station Température Refroidissement éolien Point de rosée Humidité Vent Precip. Alt. Mise à jour Type
                   

Watches & Warnings

There are currently no watches in effect.